sensor_id;sensor_type;location;lat;lon;timestamp;P1;durP1;ratioP1;P2;durP2;ratioP2
13475;SDS011;6810;63.824;20.288;2023-07-09T00:01:28;2.87;;;2.23;;
13475;SDS011;6810;63.824;20.288;2023-07-09T00:03:55;2.07;;;1.87;;
13475;SDS011;6810;63.824;20.288;2023-07-09T00:06:22;2.33;;;1.90;;
13475;SDS011;6810;63.824;20.288;2023-07-09T00:08:49;2.37;;;1.97;;
13475;SDS011;6810;63.824;20.288;2023-07-09T00:11:16;4.20;;;2.10;;
13475;SDS011;6810;63.824;20.288;2023-07-09T00:13:44;2.33;;;1.80;;
13475;SDS011;6810;63.824;20.288;2023-07-09T00:16:12;2.40;;;2.20;;
13475;SDS011;6810;63.824;20.288;2023-07-09T00:18:41;2.40;;;1.87;;
13475;SDS011;6810;63.824;20.288;2023-07-09T00:21:08;2.37;;;1.90;;
13475;SDS011;6810;63.824;20.288;2023-07-09T00:23:35;2.23;;;2.03;;
13475;SDS011;6810;63.824;20.288;2023-07-09T00:26:09;2.63;;;2.00;;
13475;SDS011;6810;63.824;20.288;2023-07-09T00:28:37;5.20;;;2.20;;
13475;SDS011;6810;63.824;20.288;2023-07-09T00:31:04;2.00;;;1.80;;
13475;SDS011;6810;63.824;20.288;2023-07-09T00:33:31;2.20;;;2.00;;
13475;SDS011;6810;63.824;20.288;2023-07-09T00:36:00;2.90;;;1.90;;
13475;SDS011;6810;63.824;20.288;2023-07-09T00:38:28;3.00;;;2.00;;
13475;SDS011;6810;63.824;20.288;2023-07-09T00:43:33;2.30;;;2.10;;
13475;SDS011;6810;63.824;20.288;2023-07-09T00:46:10;2.43;;;1.97;;
13475;SDS011;6810;63.824;20.288;2023-07-09T00:48:44;2.73;;;2.00;;
13475;SDS011;6810;63.824;20.288;2023-07-09T00:51:15;3.33;;;2.30;;
13475;SDS011;6810;63.824;20.288;2023-07-09T00:53:51;2.53;;;2.13;;
13475;SDS011;6810;63.824;20.288;2023-07-09T00:56:24;2.03;;;1.93;;
13475;SDS011;6810;63.824;20.288;2023-07-09T00:58:58;2.20;;;1.73;;
13475;SDS011;6810;63.824;20.288;2023-07-09T01:01:33;2.70;;;1.93;;
13475;SDS011;6810;63.824;20.288;2023-07-09T01:04:01;4.50;;;1.70;;
13475;SDS011;6810;63.824;20.288;2023-07-09T01:06:32;1.77;;;1.67;;
13475;SDS011;6810;63.824;20.288;2023-07-09T01:09:03;4.37;;;2.00;;
13475;SDS011;6810;63.824;20.288;2023-07-09T01:11:32;1.63;;;1.53;;
13475;SDS011;6810;63.824;20.288;2023-07-09T01:14:00;3.10;;;1.90;;
13475;SDS011;6810;63.824;20.288;2023-07-09T01:16:31;3.13;;;1.60;;
13475;SDS011;6810;63.824;20.288;2023-07-09T01:19:04;2.27;;;1.73;;
13475;SDS011;6810;63.824;20.288;2023-07-09T01:21:32;2.03;;;1.83;;
13475;SDS011;6810;63.824;20.288;2023-07-09T01:24:10;2.33;;;1.83;;
13475;SDS011;6810;63.824;20.288;2023-07-09T01:27:05;2.00;;;1.80;;
13475;SDS011;6810;63.824;20.288;2023-07-09T01:29:33;2.10;;;1.70;;
13475;SDS011;6810;63.824;20.288;2023-07-09T01:32:03;2.70;;;1.93;;
13475;SDS011;6810;63.824;20.288;2023-07-09T01:34:33;2.10;;;1.90;;
13475;SDS011;6810;63.824;20.288;2023-07-09T01:37:00;3.37;;;2.00;;
13475;SDS011;6810;63.824;20.288;2023-07-09T01:39:28;3.50;;;1.93;;
13475;SDS011;6810;63.824;20.288;2023-07-09T01:41:55;2.20;;;2.00;;
13475;SDS011;6810;63.824;20.288;2023-07-09T01:44:23;2.33;;;1.90;;
13475;SDS011;6810;63.824;20.288;2023-07-09T01:46:50;2.20;;;1.80;;
13475;SDS011;6810;63.824;20.288;2023-07-09T01:49:17;2.20;;;2.00;;
13475;SDS011;6810;63.824;20.288;2023-07-09T01:51:45;2.43;;;2.23;;
13475;SDS011;6810;63.824;20.288;2023-07-09T01:54:13;2.90;;;1.90;;
13475;SDS011;6810;63.824;20.288;2023-07-09T01:56:43;1.97;;;1.80;;
13475;SDS011;6810;63.824;20.288;2023-07-09T01:59:10;2.20;;;2.00;;
13475;SDS011;6810;63.824;20.288;2023-07-09T02:01:37;2.80;;;2.27;;
13475;SDS011;6810;63.824;20.288;2023-07-09T02:04:05;2.93;;;2.60;;
13475;SDS011;6810;63.824;20.288;2023-07-09T02:06:32;3.03;;;2.70;;
13475;SDS011;6810;63.824;20.288;2023-07-09T02:08:59;3.03;;;2.57;;
13475;SDS011;6810;63.824;20.288;2023-07-09T02:11:26;2.80;;;2.53;;
13475;SDS011;6810;63.824;20.288;2023-07-09T02:13:53;2.67;;;2.40;;
13475;SDS011;6810;63.824;20.288;2023-07-09T02:16:20;2.77;;;2.53;;
13475;SDS011;6810;63.824;20.288;2023-07-09T02:18:47;2.93;;;2.50;;
13475;SDS011;6810;63.824;20.288;2023-07-09T02:21:14;4.33;;;2.73;;
13475;SDS011;6810;63.824;20.288;2023-07-09T02:23:41;3.67;;;3.03;;
13475;SDS011;6810;63.824;20.288;2023-07-09T02:26:11;3.80;;;2.50;;
13475;SDS011;6810;63.824;20.288;2023-07-09T02:28:38;3.53;;;2.53;;
13475;SDS011;6810;63.824;20.288;2023-07-09T02:31:06;2.70;;;2.50;;
13475;SDS011;6810;63.824;20.288;2023-07-09T02:33:34;2.80;;;2.50;;
13475;SDS011;6810;63.824;20.288;2023-07-09T02:36:02;6.90;;;2.77;;
13475;SDS011;6810;63.824;20.288;2023-07-09T02:38:30;4.97;;;2.50;;
13475;SDS011;6810;63.824;20.288;2023-07-09T02:40:57;6.17;;;2.57;;
13475;SDS011;6810;63.824;20.288;2023-07-09T02:43:25;11.10;;;3.00;;
13475;SDS011;6810;63.824;20.288;2023-07-09T02:45:52;3.77;;;2.60;;
13475;SDS011;6810;63.824;20.288;2023-07-09T02:48:19;5.37;;;2.63;;
13475;SDS011;6810;63.824;20.288;2023-07-09T02:50:46;4.90;;;2.70;;
13475;SDS011;6810;63.824;20.288;2023-07-09T02:53:13;4.00;;;2.53;;
13475;SDS011;6810;63.824;20.288;2023-07-09T02:55:40;3.13;;;2.20;;
13475;SDS011;6810;63.824;20.288;2023-07-09T02:58:07;3.20;;;2.30;;
13475;SDS011;6810;63.824;20.288;2023-07-09T03:00:34;2.90;;;2.50;;
13475;SDS011;6810;63.824;20.288;2023-07-09T03:03:01;9.00;;;2.63;;
13475;SDS011;6810;63.824;20.288;2023-07-09T03:05:29;8.00;;;2.80;;
13475;SDS011;6810;63.824;20.288;2023-07-09T03:07:56;4.50;;;3.60;;
13475;SDS011;6810;63.824;20.288;2023-07-09T03:10:23;3.40;;;2.97;;
13475;SDS011;6810;63.824;20.288;2023-07-09T03:12:50;3.33;;;3.00;;
13475;SDS011;6810;63.824;20.288;2023-07-09T03:15:17;2.60;;;2.40;;
13475;SDS011;6810;63.824;20.288;2023-07-09T03:17:44;3.03;;;2.70;;
13475;SDS011;6810;63.824;20.288;2023-07-09T03:20:11;2.70;;;2.50;;
13475;SDS011;6810;63.824;20.288;2023-07-09T03:22:39;2.30;;;2.10;;
13475;SDS011;6810;63.824;20.288;2023-07-09T03:25:06;2.30;;;2.10;;
13475;SDS011;6810;63.824;20.288;2023-07-09T03:27:34;2.47;;;2.27;;
13475;SDS011;6810;63.824;20.288;2023-07-09T03:30:01;2.37;;;1.80;;
13475;SDS011;6810;63.824;20.288;2023-07-09T03:32:29;1.93;;;1.83;;
13475;SDS011;6810;63.824;20.288;2023-07-09T03:34:57;2.23;;;2.03;;
13475;SDS011;6810;63.824;20.288;2023-07-09T03:37:24;1.70;;;1.60;;
13475;SDS011;6810;63.824;20.288;2023-07-09T03:39:51;1.77;;;1.67;;
13475;SDS011;6810;63.824;20.288;2023-07-09T03:42:18;1.80;;;1.70;;
13475;SDS011;6810;63.824;20.288;2023-07-09T03:44:45;1.77;;;1.67;;
13475;SDS011;6810;63.824;20.288;2023-07-09T03:47:12;2.60;;;1.60;;
13475;SDS011;6810;63.824;20.288;2023-07-09T03:49:39;1.60;;;1.50;;
13475;SDS011;6810;63.824;20.288;2023-07-09T03:52:08;1.30;;;1.20;;
13475;SDS011;6810;63.824;20.288;2023-07-09T03:54:35;1.60;;;1.50;;
13475;SDS011;6810;63.824;20.288;2023-07-09T03:57:02;1.87;;;1.30;;
13475;SDS011;6810;63.824;20.288;2023-07-09T03:59:29;1.70;;;1.60;;
13475;SDS011;6810;63.824;20.288;2023-07-09T04:01:56;1.40;;;1.30;;
13475;SDS011;6810;63.824;20.288;2023-07-09T04:04:23;1.50;;;1.40;;
13475;SDS011;6810;63.824;20.288;2023-07-09T04:06:51;1.10;;;1.10;;
13475;SDS011;6810;63.824;20.288;2023-07-09T04:09:18;1.30;;;1.20;;
13475;SDS011;6810;63.824;20.288;2023-07-09T04:11:45;1.20;;;1.20;;
13475;SDS011;6810;63.824;20.288;2023-07-09T04:14:12;0.90;;;0.90;;
13475;SDS011;6810;63.824;20.288;2023-07-09T04:16:39;0.97;;;0.97;;
13475;SDS011;6810;63.824;20.288;2023-07-09T04:19:07;0.90;;;0.90;;
13475;SDS011;6810;63.824;20.288;2023-07-09T04:21:34;0.83;;;0.83;;
13475;SDS011;6810;63.824;20.288;2023-07-09T04:24:01;1.10;;;1.10;;
13475;SDS011;6810;63.824;20.288;2023-07-09T04:26:28;0.90;;;0.90;;
13475;SDS011;6810;63.824;20.288;2023-07-09T04:28:55;0.97;;;0.97;;
13475;SDS011;6810;63.824;20.288;2023-07-09T04:31:22;1.00;;;1.00;;
13475;SDS011;6810;63.824;20.288;2023-07-09T04:33:49;0.97;;;0.97;;
13475;SDS011;6810;63.824;20.288;2023-07-09T04:36:19;0.90;;;0.90;;
13475;SDS011;6810;63.824;20.288;2023-07-09T04:38:46;0.90;;;0.90;;
13475;SDS011;6810;63.824;20.288;2023-07-09T04:41:13;0.80;;;0.80;;
13475;SDS011;6810;63.824;20.288;2023-07-09T04:43:41;0.83;;;0.83;;
13475;SDS011;6810;63.824;20.288;2023-07-09T04:46:07;0.93;;;0.90;;
13475;SDS011;6810;63.824;20.288;2023-07-09T04:48:35;0.77;;;0.77;;
13475;SDS011;6810;63.824;20.288;2023-07-09T04:51:02;0.80;;;0.80;;
13475;SDS011;6810;63.824;20.288;2023-07-09T04:53:29;1.17;;;1.10;;
13475;SDS011;6810;63.824;20.288;2023-07-09T04:55:56;2.60;;;1.07;;
13475;SDS011;6810;63.824;20.288;2023-07-09T04:58:24;1.00;;;1.00;;
13475;SDS011;6810;63.824;20.288;2023-07-09T05:00:51;0.93;;;0.93;;
13475;SDS011;6810;63.824;20.288;2023-07-09T05:03:18;1.20;;;1.10;;
13475;SDS011;6810;63.824;20.288;2023-07-09T05:05:46;0.93;;;0.93;;
13475;SDS011;6810;63.824;20.288;2023-07-09T05:08:14;0.90;;;0.90;;
13475;SDS011;6810;63.824;20.288;2023-07-09T05:10:45;1.20;;;1.20;;
13475;SDS011;6810;63.824;20.288;2023-07-09T05:13:13;1.00;;;1.00;;
13475;SDS011;6810;63.824;20.288;2023-07-09T05:15:41;1.00;;;1.00;;
13475;SDS011;6810;63.824;20.288;2023-07-09T05:18:11;1.37;;;1.27;;
13475;SDS011;6810;63.824;20.288;2023-07-09T05:20:43;1.93;;;1.20;;
13475;SDS011;6810;63.824;20.288;2023-07-09T05:23:10;1.43;;;1.33;;
13475;SDS011;6810;63.824;20.288;2023-07-09T05:25:37;1.60;;;1.50;;
13475;SDS011;6810;63.824;20.288;2023-07-09T05:28:05;1.80;;;1.70;;
13475;SDS011;6810;63.824;20.288;2023-07-09T05:30:32;1.90;;;1.80;;
13475;SDS011;6810;63.824;20.288;2023-07-09T05:32:59;2.10;;;1.70;;
13475;SDS011;6810;63.824;20.288;2023-07-09T05:35:27;1.90;;;1.80;;
13475;SDS011;6810;63.824;20.288;2023-07-09T05:37:54;1.97;;;1.87;;
13475;SDS011;6810;63.824;20.288;2023-07-09T05:40:22;1.83;;;1.70;;
13475;SDS011;6810;63.824;20.288;2023-07-09T05:42:49;1.87;;;1.73;;
13475;SDS011;6810;63.824;20.288;2023-07-09T05:45:16;2.10;;;2.00;;
13475;SDS011;6810;63.824;20.288;2023-07-09T05:47:45;1.80;;;1.70;;
13475;SDS011;6810;63.824;20.288;2023-07-09T05:50:13;2.23;;;1.97;;
13475;SDS011;6810;63.824;20.288;2023-07-09T05:52:40;2.33;;;2.23;;
13475;SDS011;6810;63.824;20.288;2023-07-09T05:55:07;2.13;;;1.93;;
13475;SDS011;6810;63.824;20.288;2023-07-09T05:57:34;3.77;;;2.40;;
13475;SDS011;6810;63.824;20.288;2023-07-09T06:00:01;2.90;;;2.30;;
13475;SDS011;6810;63.824;20.288;2023-07-09T06:02:38;2.20;;;2.10;;
13475;SDS011;6810;63.824;20.288;2023-07-09T06:05:06;2.60;;;2.40;;
13475;SDS011;6810;63.824;20.288;2023-07-09T06:07:38;2.30;;;2.20;;
13475;SDS011;6810;63.824;20.288;2023-07-09T06:10:06;2.50;;;2.30;;
13475;SDS011;6810;63.824;20.288;2023-07-09T06:12:34;2.57;;;2.30;;
13475;SDS011;6810;63.824;20.288;2023-07-09T06:15:02;2.50;;;2.30;;
13475;SDS011;6810;63.824;20.288;2023-07-09T06:17:31;2.47;;;2.30;;
13475;SDS011;6810;63.824;20.288;2023-07-09T06:19:57;2.60;;;2.40;;
13475;SDS011;6810;63.824;20.288;2023-07-09T06:22:25;2.73;;;2.53;;
13475;SDS011;6810;63.824;20.288;2023-07-09T06:24:53;2.30;;;2.20;;
13475;SDS011;6810;63.824;20.288;2023-07-09T06:27:21;2.37;;;2.27;;
13475;SDS011;6810;63.824;20.288;2023-07-09T06:29:48;2.30;;;2.10;;
13475;SDS011;6810;63.824;20.288;2023-07-09T06:32:15;1.90;;;1.80;;
13475;SDS011;6810;63.824;20.288;2023-07-09T06:34:42;2.23;;;2.10;;
13475;SDS011;6810;63.824;20.288;2023-07-09T06:37:09;2.20;;;2.10;;
13475;SDS011;6810;63.824;20.288;2023-07-09T06:39:36;2.00;;;1.90;;
13475;SDS011;6810;63.824;20.288;2023-07-09T06:42:03;2.40;;;2.20;;
13475;SDS011;6810;63.824;20.288;2023-07-09T06:44:52;2.60;;;2.40;;
13475;SDS011;6810;63.824;20.288;2023-07-09T06:47:19;2.60;;;2.40;;
13475;SDS011;6810;63.824;20.288;2023-07-09T06:49:46;2.70;;;2.40;;
13475;SDS011;6810;63.824;20.288;2023-07-09T06:52:13;2.77;;;2.20;;
13475;SDS011;6810;63.824;20.288;2023-07-09T06:54:40;3.57;;;2.40;;
13475;SDS011;6810;63.824;20.288;2023-07-09T06:57:08;2.50;;;2.30;;
13475;SDS011;6810;63.824;20.288;2023-07-09T06:59:35;2.37;;;2.23;;
13475;SDS011;6810;63.824;20.288;2023-07-09T07:02:02;2.50;;;2.30;;
13475;SDS011;6810;63.824;20.288;2023-07-09T07:04:29;2.30;;;2.20;;
13475;SDS011;6810;63.824;20.288;2023-07-09T07:06:56;2.30;;;2.20;;
13475;SDS011;6810;63.824;20.288;2023-07-09T07:09:23;2.00;;;1.90;;
13475;SDS011;6810;63.824;20.288;2023-07-09T07:11:50;2.20;;;2.10;;
13475;SDS011;6810;63.824;20.288;2023-07-09T07:14:17;2.50;;;2.30;;
13475;SDS011;6810;63.824;20.288;2023-07-09T07:16:45;2.30;;;2.10;;
13475;SDS011;6810;63.824;20.288;2023-07-09T07:19:12;2.60;;;2.40;;
13475;SDS011;6810;63.824;20.288;2023-07-09T07:21:39;2.40;;;2.20;;
13475;SDS011;6810;63.824;20.288;2023-07-09T07:24:06;2.50;;;2.23;;
13475;SDS011;6810;63.824;20.288;2023-07-09T07:26:33;2.30;;;2.20;;
13475;SDS011;6810;63.824;20.288;2023-07-09T07:29:01;2.60;;;2.40;;
13475;SDS011;6810;63.824;20.288;2023-07-09T07:31:28;2.30;;;2.10;;
13475;SDS011;6810;63.824;20.288;2023-07-09T07:33:55;1.70;;;1.60;;
13475;SDS011;6810;63.824;20.288;2023-07-09T07:36:22;2.27;;;1.60;;
13475;SDS011;6810;63.824;20.288;2023-07-09T07:38:57;2.17;;;1.50;;
13475;SDS011;6810;63.824;20.288;2023-07-09T07:41:25;1.50;;;1.40;;
13475;SDS011;6810;63.824;20.288;2023-07-09T07:43:52;1.40;;;1.30;;
13475;SDS011;6810;63.824;20.288;2023-07-09T07:46:19;1.50;;;1.40;;
13475;SDS011;6810;63.824;20.288;2023-07-09T07:48:46;2.50;;;1.73;;
13475;SDS011;6810;63.824;20.288;2023-07-09T07:51:13;1.60;;;1.50;;
13475;SDS011;6810;63.824;20.288;2023-07-09T07:53:40;1.50;;;1.37;;
13475;SDS011;6810;63.824;20.288;2023-07-09T07:56:07;2.00;;;1.80;;
13475;SDS011;6810;63.824;20.288;2023-07-09T07:58:35;3.03;;;2.00;;
13475;SDS011;6810;63.824;20.288;2023-07-09T08:01:02;2.47;;;1.90;;
13475;SDS011;6810;63.824;20.288;2023-07-09T08:03:31;1.83;;;1.73;;
13475;SDS011;6810;63.824;20.288;2023-07-09T08:05:58;1.80;;;1.70;;
13475;SDS011;6810;63.824;20.288;2023-07-09T08:08:28;1.87;;;1.77;;
13475;SDS011;6810;63.824;20.288;2023-07-09T08:11:03;1.93;;;1.80;;
13475;SDS011;6810;63.824;20.288;2023-07-09T08:13:34;1.40;;;1.30;;
13475;SDS011;6810;63.824;20.288;2023-07-09T08:16:04;1.40;;;1.30;;
13475;SDS011;6810;63.824;20.288;2023-07-09T08:18:32;1.10;;;1.10;;
13475;SDS011;6810;63.824;20.288;2023-07-09T08:21:00;1.47;;;1.20;;
13475;SDS011;6810;63.824;20.288;2023-07-09T08:23:27;1.50;;;1.40;;
13475;SDS011;6810;63.824;20.288;2023-07-09T08:25:55;1.83;;;1.50;;
13475;SDS011;6810;63.824;20.288;2023-07-09T08:28:24;1.00;;;0.90;;
13475;SDS011;6810;63.824;20.288;2023-07-09T08:30:51;1.40;;;1.30;;
13475;SDS011;6810;63.824;20.288;2023-07-09T08:33:22;1.77;;;1.60;;
13475;SDS011;6810;63.824;20.288;2023-07-09T08:35:50;1.37;;;1.20;;
13475;SDS011;6810;63.824;20.288;2023-07-09T08:38:19;1.30;;;1.20;;
13475;SDS011;6810;63.824;20.288;2023-07-09T08:40:53;1.17;;;1.07;;
13475;SDS011;6810;63.824;20.288;2023-07-09T08:43:30;1.20;;;1.20;;
13475;SDS011;6810;63.824;20.288;2023-07-09T08:46:11;1.70;;;1.50;;
13475;SDS011;6810;63.824;20.288;2023-07-09T08:48:40;1.53;;;1.20;;
13475;SDS011;6810;63.824;20.288;2023-07-09T08:51:17;1.20;;;1.10;;
13475;SDS011;6810;63.824;20.288;2023-07-09T08:53:49;2.20;;;1.40;;
13475;SDS011;6810;63.824;20.288;2023-07-09T08:56:21;1.53;;;1.40;;
13475;SDS011;6810;63.824;20.288;2023-07-09T08:58:49;1.50;;;1.30;;
13475;SDS011;6810;63.824;20.288;2023-07-09T09:01:38;1.27;;;1.23;;
13475;SDS011;6810;63.824;20.288;2023-07-09T09:06:53;1.60;;;1.50;;
13475;SDS011;6810;63.824;20.288;2023-07-09T09:10:02;1.30;;;1.20;;
13475;SDS011;6810;63.824;20.288;2023-07-09T09:12:33;2.17;;;1.60;;
13475;SDS011;6810;63.824;20.288;2023-07-09T09:15:16;1.43;;;1.27;;
13475;SDS011;6810;63.824;20.288;2023-07-09T09:17:45;2.03;;;1.23;;
13475;SDS011;6810;63.824;20.288;2023-07-09T09:20:20;1.60;;;1.50;;
13475;SDS011;6810;63.824;20.288;2023-07-09T09:25:28;2.17;;;1.50;;
13475;SDS011;6810;63.824;20.288;2023-07-09T09:28:01;1.23;;;1.17;;
13475;SDS011;6810;63.824;20.288;2023-07-09T09:30:29;2.03;;;1.20;;
13475;SDS011;6810;63.824;20.288;2023-07-09T09:32:59;1.60;;;1.50;;
13475;SDS011;6810;63.824;20.288;2023-07-09T09:35:28;1.30;;;1.20;;
13475;SDS011;6810;63.824;20.288;2023-07-09T09:38:00;1.73;;;1.63;;
13475;SDS011;6810;63.824;20.288;2023-07-09T09:40:32;1.40;;;1.30;;
13475;SDS011;6810;63.824;20.288;2023-07-09T09:43:02;1.50;;;1.40;;
13475;SDS011;6810;63.824;20.288;2023-07-09T09:45:33;1.40;;;1.30;;
13475;SDS011;6810;63.824;20.288;2023-07-09T09:48:05;1.10;;;1.10;;
13475;SDS011;6810;63.824;20.288;2023-07-09T09:50:39;1.50;;;1.40;;
13475;SDS011;6810;63.824;20.288;2023-07-09T09:53:07;1.37;;;1.27;;
13475;SDS011;6810;63.824;20.288;2023-07-09T09:55:37;1.60;;;1.50;;
13475;SDS011;6810;63.824;20.288;2023-07-09T09:58:11;1.60;;;1.50;;
13475;SDS011;6810;63.824;20.288;2023-07-09T10:00:46;1.47;;;1.37;;
13475;SDS011;6810;63.824;20.288;2023-07-09T10:03:19;1.50;;;1.30;;
13475;SDS011;6810;63.824;20.288;2023-07-09T10:05:55;1.43;;;1.33;;
13475;SDS011;6810;63.824;20.288;2023-07-09T10:13:53;1.57;;;1.47;;
13475;SDS011;6810;63.824;20.288;2023-07-09T10:16:45;1.27;;;1.10;;
13475;SDS011;6810;63.824;20.288;2023-07-09T10:25:14;2.30;;;1.30;;
13475;SDS011;6810;63.824;20.288;2023-07-09T10:39:12;1.40;;;1.30;;
13475;SDS011;6810;63.824;20.288;2023-07-09T10:41:42;1.40;;;1.30;;
13475;SDS011;6810;63.824;20.288;2023-07-09T10:46:37;1.83;;;1.20;;
13475;SDS011;6810;63.824;20.288;2023-07-09T10:49:10;1.47;;;1.37;;
13475;SDS011;6810;63.824;20.288;2023-07-09T10:51:52;1.00;;;1.00;;
13475;SDS011;6810;63.824;20.288;2023-07-09T10:57:21;1.00;;;1.00;;
13475;SDS011;6810;63.824;20.288;2023-07-09T10:59:54;1.77;;;1.17;;
13475;SDS011;6810;63.824;20.288;2023-07-09T11:02:33;1.10;;;1.00;;
13475;SDS011;6810;63.824;20.288;2023-07-09T11:05:04;1.07;;;1.07;;
13475;SDS011;6810;63.824;20.288;2023-07-09T11:07:44;1.17;;;1.13;;
13475;SDS011;6810;63.824;20.288;2023-07-09T11:10:23;1.50;;;1.40;;
13475;SDS011;6810;63.824;20.288;2023-07-09T11:16:13;1.17;;;1.10;;
13475;SDS011;6810;63.824;20.288;2023-07-09T11:18:56;1.60;;;1.40;;
13475;SDS011;6810;63.824;20.288;2023-07-09T11:21:27;1.40;;;1.40;;
13475;SDS011;6810;63.824;20.288;2023-07-09T11:23:55;1.60;;;1.50;;
13475;SDS011;6810;63.824;20.288;2023-07-09T11:26:28;1.73;;;1.30;;
13475;SDS011;6810;63.824;20.288;2023-07-09T11:31:34;3.27;;;2.10;;
13475;SDS011;6810;63.824;20.288;2023-07-09T11:36:45;2.10;;;1.70;;
13475;SDS011;6810;63.824;20.288;2023-07-09T11:42:03;1.60;;;1.50;;
13475;SDS011;6810;63.824;20.288;2023-07-09T11:44:31;1.17;;;1.17;;
13475;SDS011;6810;63.824;20.288;2023-07-09T11:47:21;1.70;;;1.60;;
13475;SDS011;6810;63.824;20.288;2023-07-09T11:50:36;1.80;;;1.70;;
13475;SDS011;6810;63.824;20.288;2023-07-09T11:55:49;1.80;;;1.70;;
13475;SDS011;6810;63.824;20.288;2023-07-09T11:58:16;1.70;;;1.60;;
13475;SDS011;6810;63.824;20.288;2023-07-09T12:00:51;1.80;;;1.70;;
13475;SDS011;6810;63.824;20.288;2023-07-09T12:03:29;1.83;;;1.70;;
13475;SDS011;6810;63.824;20.288;2023-07-09T12:06:00;1.57;;;1.47;;
13475;SDS011;6810;63.824;20.288;2023-07-09T12:08:34;1.57;;;1.47;;
13475;SDS011;6810;63.824;20.288;2023-07-09T12:11:03;1.50;;;1.40;;
13475;SDS011;6810;63.824;20.288;2023-07-09T12:13:38;1.60;;;1.50;;
13475;SDS011;6810;63.824;20.288;2023-07-09T12:16:20;1.70;;;1.60;;
13475;SDS011;6810;63.824;20.288;2023-07-09T12:18:48;1.57;;;1.30;;
13475;SDS011;6810;63.824;20.288;2023-07-09T12:21:16;1.50;;;1.40;;
13475;SDS011;6810;63.824;20.288;2023-07-09T12:23:43;1.87;;;1.40;;
13475;SDS011;6810;63.824;20.288;2023-07-09T12:26:11;1.80;;;1.60;;
13475;SDS011;6810;63.824;20.288;2023-07-09T12:28:41;1.50;;;1.40;;
13475;SDS011;6810;63.824;20.288;2023-07-09T12:31:13;1.07;;;1.07;;
13475;SDS011;6810;63.824;20.288;2023-07-09T12:33:48;1.10;;;1.10;;
13475;SDS011;6810;63.824;20.288;2023-07-09T12:36:16;1.40;;;1.30;;
13475;SDS011;6810;63.824;20.288;2023-07-09T12:38:46;1.57;;;1.30;;
13475;SDS011;6810;63.824;20.288;2023-07-09T12:41:21;1.40;;;1.30;;
13475;SDS011;6810;63.824;20.288;2023-07-09T12:43:52;1.20;;;1.10;;
13475;SDS011;6810;63.824;20.288;2023-07-09T12:46:21;1.20;;;1.10;;
13475;SDS011;6810;63.824;20.288;2023-07-09T12:48:54;1.20;;;1.10;;
13475;SDS011;6810;63.824;20.288;2023-07-09T12:51:22;1.10;;;1.10;;
13475;SDS011;6810;63.824;20.288;2023-07-09T12:54:05;1.20;;;1.10;;
13475;SDS011;6810;63.824;20.288;2023-07-09T12:56:40;1.40;;;1.30;;
13475;SDS011;6810;63.824;20.288;2023-07-09T12:59:18;1.50;;;1.40;;
13475;SDS011;6810;63.824;20.288;2023-07-09T13:01:49;1.40;;;1.30;;
13475;SDS011;6810;63.824;20.288;2023-07-09T13:04:17;1.10;;;1.10;;
13475;SDS011;6810;63.824;20.288;2023-07-09T13:06:44;1.53;;;1.23;;
13475;SDS011;6810;63.824;20.288;2023-07-09T13:09:18;1.30;;;1.20;;
13475;SDS011;6810;63.824;20.288;2023-07-09T13:11:48;1.47;;;1.37;;
13475;SDS011;6810;63.824;20.288;2023-07-09T13:14:24;1.93;;;1.83;;
13475;SDS011;6810;63.824;20.288;2023-07-09T13:16:53;1.60;;;1.40;;
13475;SDS011;6810;63.824;20.288;2023-07-09T13:19:32;1.33;;;1.23;;
13475;SDS011;6810;63.824;20.288;2023-07-09T13:21:59;1.40;;;1.30;;
13475;SDS011;6810;63.824;20.288;2023-07-09T13:24:29;1.30;;;1.20;;
13475;SDS011;6810;63.824;20.288;2023-07-09T13:27:00;1.83;;;1.33;;
13475;SDS011;6810;63.824;20.288;2023-07-09T13:29:28;1.47;;;1.37;;
13475;SDS011;6810;63.824;20.288;2023-07-09T13:31:58;2.23;;;1.53;;
13475;SDS011;6810;63.824;20.288;2023-07-09T13:34:26;1.50;;;1.30;;
13475;SDS011;6810;63.824;20.288;2023-07-09T13:36:54;1.33;;;1.23;;
13475;SDS011;6810;63.824;20.288;2023-07-09T13:39:25;1.50;;;1.40;;
13475;SDS011;6810;63.824;20.288;2023-07-09T13:41:54;2.20;;;1.20;;
13475;SDS011;6810;63.824;20.288;2023-07-09T13:44:23;1.57;;;1.20;;
13475;SDS011;6810;63.824;20.288;2023-07-09T13:46:52;1.30;;;1.20;;
13475;SDS011;6810;63.824;20.288;2023-07-09T13:49:19;1.40;;;1.37;;
13475;SDS011;6810;63.824;20.288;2023-07-09T13:51:50;1.20;;;1.20;;
13475;SDS011;6810;63.824;20.288;2023-07-09T13:54:37;1.70;;;1.60;;
13475;SDS011;6810;63.824;20.288;2023-07-09T13:57:05;1.67;;;1.57;;
13475;SDS011;6810;63.824;20.288;2023-07-09T13:59:37;1.50;;;1.40;;
13475;SDS011;6810;63.824;20.288;2023-07-09T14:02:22;1.40;;;1.30;;
13475;SDS011;6810;63.824;20.288;2023-07-09T14:04:53;1.40;;;1.30;;
13475;SDS011;6810;63.824;20.288;2023-07-09T14:07:28;1.30;;;1.20;;
13475;SDS011;6810;63.824;20.288;2023-07-09T14:09:58;1.43;;;1.33;;
13475;SDS011;6810;63.824;20.288;2023-07-09T14:12:26;1.27;;;1.27;;
13475;SDS011;6810;63.824;20.288;2023-07-09T14:15:14;1.60;;;1.50;;
13475;SDS011;6810;63.824;20.288;2023-07-09T14:17:44;1.80;;;1.70;;
13475;SDS011;6810;63.824;20.288;2023-07-09T14:20:14;1.40;;;1.30;;
13475;SDS011;6810;63.824;20.288;2023-07-09T14:22:42;1.40;;;1.30;;
13475;SDS011;6810;63.824;20.288;2023-07-09T14:25:20;1.63;;;1.40;;
13475;SDS011;6810;63.824;20.288;2023-07-09T14:27:49;1.37;;;1.27;;
13475;SDS011;6810;63.824;20.288;2023-07-09T14:30:18;1.50;;;1.40;;
13475;SDS011;6810;63.824;20.288;2023-07-09T14:32:48;1.40;;;1.30;;
13475;SDS011;6810;63.824;20.288;2023-07-09T14:35:18;1.73;;;1.30;;
13475;SDS011;6810;63.824;20.288;2023-07-09T14:37:48;1.30;;;1.10;;
13475;SDS011;6810;63.824;20.288;2023-07-09T14:40:17;1.40;;;1.30;;
13475;SDS011;6810;63.824;20.288;2023-07-09T14:42:49;1.40;;;1.30;;
13475;SDS011;6810;63.824;20.288;2023-07-09T14:45:20;1.10;;;1.10;;
13475;SDS011;6810;63.824;20.288;2023-07-09T14:47:53;1.27;;;1.17;;
13475;SDS011;6810;63.824;20.288;2023-07-09T14:50:21;1.20;;;1.10;;
13475;SDS011;6810;63.824;20.288;2023-07-09T14:53:02;1.27;;;1.20;;
13475;SDS011;6810;63.824;20.288;2023-07-09T14:55:29;1.20;;;1.10;;
13475;SDS011;6810;63.824;20.288;2023-07-09T14:57:56;1.30;;;1.20;;
13475;SDS011;6810;63.824;20.288;2023-07-09T15:00:27;1.70;;;1.23;;
13475;SDS011;6810;63.824;20.288;2023-07-09T15:02:54;1.97;;;1.37;;
13475;SDS011;6810;63.824;20.288;2023-07-09T15:05:23;1.20;;;1.10;;
13475;SDS011;6810;63.824;20.288;2023-07-09T15:07:52;1.17;;;1.10;;
13475;SDS011;6810;63.824;20.288;2023-07-09T15:10:23;2.43;;;1.00;;
13475;SDS011;6810;63.824;20.288;2023-07-09T15:12:51;1.37;;;1.20;;
13475;SDS011;6810;63.824;20.288;2023-07-09T15:15:23;2.00;;;1.20;;
13475;SDS011;6810;63.824;20.288;2023-07-09T15:17:52;1.90;;;1.30;;
13475;SDS011;6810;63.824;20.288;2023-07-09T15:20:24;1.00;;;1.00;;
13475;SDS011;6810;63.824;20.288;2023-07-09T15:22:54;1.20;;;1.10;;
13475;SDS011;6810;63.824;20.288;2023-07-09T15:25:24;1.53;;;1.20;;
13475;SDS011;6810;63.824;20.288;2023-07-09T15:27:53;1.20;;;1.00;;
13475;SDS011;6810;63.824;20.288;2023-07-09T15:30:27;1.90;;;1.07;;
13475;SDS011;6810;63.824;20.288;2023-07-09T15:32:57;1.03;;;1.03;;
13475;SDS011;6810;63.824;20.288;2023-07-09T15:35:34;0.90;;;0.90;;
13475;SDS011;6810;63.824;20.288;2023-07-09T15:38:36;1.07;;;1.07;;
13475;SDS011;6810;63.824;20.288;2023-07-09T15:40:57;1.30;;;1.20;;
13475;SDS011;6810;63.824;20.288;2023-07-09T15:43:25;1.20;;;1.10;;
13475;SDS011;6810;63.824;20.288;2023-07-09T15:45:55;0.90;;;0.90;;
13475;SDS011;6810;63.824;20.288;2023-07-09T15:48:30;1.27;;;1.20;;
13475;SDS011;6810;63.824;20.288;2023-07-09T15:51:00;1.63;;;1.00;;
13475;SDS011;6810;63.824;20.288;2023-07-09T15:53:29;3.40;;;1.60;;
13475;SDS011;6810;63.824;20.288;2023-07-09T15:56:01;1.63;;;1.23;;